createdAt,value
2019-01-08T19:33:29.142Z,4.3
2019-01-08T19:38:52.895Z,4.2
2019-01-08T19:44:25.284Z,3.8
2019-01-08T19:49:48.677Z,3.7
2019-01-08T19:55:12.010Z,3.3
2019-01-08T20:00:45.812Z,3.5
2019-01-08T20:06:09.620Z,3.5
2019-01-08T20:11:35.256Z,4.6
2019-01-08T20:17:11.649Z,3.5
2019-01-08T20:22:35.796Z,3.8
2019-01-08T20:27:58.574Z,4
2019-01-08T20:33:33.323Z,3.6
2019-01-08T20:39:07.946Z,4.2
2019-01-08T20:44:42.238Z,4.4
2019-01-08T20:50:14.813Z,4
2019-01-08T20:55:47.853Z,4.4
2019-01-08T21:01:19.866Z,4.2
2019-01-08T21:06:56.169Z,4.2
2019-01-08T21:12:21.409Z,4.2
2019-01-08T21:17:53.130Z,3.9
2019-01-08T21:23:15.876Z,4.4
2019-01-08T21:28:39.196Z,3.7
2019-01-08T21:34:12.147Z,4.4
2019-01-08T21:39:35.638Z,5
2019-01-08T21:44:59.985Z,4.8
2019-01-08T21:50:24.608Z,4.8
2019-01-08T21:55:56.287Z,4.4
2019-01-08T22:01:20.551Z,4
2019-01-08T22:06:53.446Z,4.3
2019-01-08T22:12:25.187Z,3.8
2019-01-08T22:17:48.560Z,3.6
2019-01-08T22:23:13.626Z,3.7
2019-01-08T22:28:47.238Z,3
2019-01-08T22:34:13.474Z,2.8
2019-01-08T22:39:37.644Z,3.2
2019-01-08T22:45:10.308Z,2.1
2019-01-08T22:50:33.305Z,2.5
2019-01-08T22:56:06.364Z,2.4
2019-01-08T23:01:28.786Z,2.3
2019-01-08T23:07:04.359Z,2.2
2019-01-08T23:12:27.024Z,2.1
2019-01-08T23:18:01.905Z,1.5
2019-01-08T23:23:26.912Z,2.4
2019-01-08T23:29:01.992Z,2
2019-01-08T23:34:25.268Z,2.2
2019-01-08T23:40:00.332Z,2
2019-01-08T23:45:24.318Z,2.3
2019-01-08T23:50:56.978Z,2.6
2019-01-08T23:56:21.471Z,3
